sensor_id;sensor_type;location;lat;lon;timestamp;P1;durP1;ratioP1;P2;durP2;ratioP2
68763;SDS011;55754;52.038;5.566;2022-08-21T00:00:04;8.88;;;3.70;;
68763;SDS011;55754;52.038;5.566;2022-08-21T00:02:36;9.38;;;3.70;;
68763;SDS011;55754;52.038;5.566;2022-08-21T00:05:02;8.97;;;3.60;;
68763;SDS011;55754;52.038;5.566;2022-08-21T00:07:29;8.43;;;3.70;;
68763;SDS011;55754;52.038;5.566;2022-08-21T00:09:54;8.60;;;3.47;;
68763;SDS011;55754;52.038;5.566;2022-08-21T00:12:20;9.83;;;4.13;;
68763;SDS011;55754;52.038;5.566;2022-08-21T00:14:46;9.73;;;3.90;;
68763;SDS011;55754;52.038;5.566;2022-08-21T00:17:12;9.63;;;4.27;;
68763;SDS011;55754;52.038;5.566;2022-08-21T00:19:38;9.63;;;4.25;;
68763;SDS011;55754;52.038;5.566;2022-08-21T00:22:04;8.03;;;3.80;;
68763;SDS011;55754;52.038;5.566;2022-08-21T00:24:30;9.48;;;4.03;;
68763;SDS011;55754;52.038;5.566;2022-08-21T00:26:56;10.00;;;4.40;;
68763;SDS011;55754;52.038;5.566;2022-08-21T00:29:22;8.75;;;3.90;;
68763;SDS011;55754;52.038;5.566;2022-08-21T00:31:47;9.88;;;4.55;;
68763;SDS011;55754;52.038;5.566;2022-08-21T00:34:13;9.10;;;4.10;;
68763;SDS011;55754;52.038;5.566;2022-08-21T00:36:39;9.63;;;4.72;;
68763;SDS011;55754;52.038;5.566;2022-08-21T00:39:06;11.93;;;4.90;;
68763;SDS011;55754;52.038;5.566;2022-08-21T00:41:33;8.57;;;4.50;;
68763;SDS011;55754;52.038;5.566;2022-08-21T00:44:00;10.98;;;4.70;;
68763;SDS011;55754;52.038;5.566;2022-08-21T00:46:26;11.27;;;4.47;;
68763;SDS011;55754;52.038;5.566;2022-08-21T00:48:51;10.98;;;4.80;;
68763;SDS011;55754;52.038;5.566;2022-08-21T00:51:20;9.63;;;5.00;;
68763;SDS011;55754;52.038;5.566;2022-08-21T00:53:51;13.88;;;5.30;;
68763;SDS011;55754;52.038;5.566;2022-08-21T00:56:20;13.63;;;5.30;;
68763;SDS011;55754;52.038;5.566;2022-08-21T00:58:48;12.03;;;5.20;;
68763;SDS011;55754;52.038;5.566;2022-08-21T01:01:15;12.10;;;5.50;;
68763;SDS011;55754;52.038;5.566;2022-08-21T01:03:41;12.65;;;5.30;;
68763;SDS011;55754;52.038;5.566;2022-08-21T01:06:07;11.30;;;5.57;;
68763;SDS011;55754;52.038;5.566;2022-08-21T01:08:34;10.55;;;5.32;;
68763;SDS011;55754;52.038;5.566;2022-08-21T01:11:00;11.18;;;5.07;;
68763;SDS011;55754;52.038;5.566;2022-08-21T01:13:28;13.30;;;6.03;;
68763;SDS011;55754;52.038;5.566;2022-08-21T01:15:56;11.15;;;5.93;;
68763;SDS011;55754;52.038;5.566;2022-08-21T01:18:24;9.85;;;5.47;;
68763;SDS011;55754;52.038;5.566;2022-08-21T01:20:58;10.50;;;5.73;;
68763;SDS011;55754;52.038;5.566;2022-08-21T01:23:25;10.15;;;5.50;;
68763;SDS011;55754;52.038;5.566;2022-08-21T01:25:51;9.95;;;5.57;;
68763;SDS011;55754;52.038;5.566;2022-08-21T01:28:17;12.87;;;5.80;;
68763;SDS011;55754;52.038;5.566;2022-08-21T01:30:44;11.18;;;5.72;;
68763;SDS011;55754;52.038;5.566;2022-08-21T01:33:10;10.63;;;5.93;;
68763;SDS011;55754;52.038;5.566;2022-08-21T01:35:36;11.10;;;5.67;;
68763;SDS011;55754;52.038;5.566;2022-08-21T01:38:02;10.13;;;5.38;;
68763;SDS011;55754;52.038;5.566;2022-08-21T01:40:28;11.75;;;5.35;;
68763;SDS011;55754;52.038;5.566;2022-08-21T01:42:53;10.93;;;5.80;;
68763;SDS011;55754;52.038;5.566;2022-08-21T01:45:19;12.50;;;5.97;;
68763;SDS011;55754;52.038;5.566;2022-08-21T01:47:45;10.60;;;5.70;;
68763;SDS011;55754;52.038;5.566;2022-08-21T01:50:12;10.65;;;5.45;;
68763;SDS011;55754;52.038;5.566;2022-08-21T01:52:40;10.13;;;5.32;;
68763;SDS011;55754;52.038;5.566;2022-08-21T01:55:07;10.00;;;5.50;;
68763;SDS011;55754;52.038;5.566;2022-08-21T01:57:33;11.25;;;5.53;;
68763;SDS011;55754;52.038;5.566;2022-08-21T01:59:59;10.02;;;5.63;;
68763;SDS011;55754;52.038;5.566;2022-08-21T02:02:25;9.93;;;5.50;;
68763;SDS011;55754;52.038;5.566;2022-08-21T02:04:50;11.57;;;5.90;;
68763;SDS011;55754;52.038;5.566;2022-08-21T02:07:16;9.17;;;5.70;;
68763;SDS011;55754;52.038;5.566;2022-08-21T02:09:42;12.05;;;6.05;;
68763;SDS011;55754;52.038;5.566;2022-08-21T02:12:08;11.87;;;5.87;;
68763;SDS011;55754;52.038;5.566;2022-08-21T02:14:34;11.13;;;6.18;;
68763;SDS011;55754;52.038;5.566;2022-08-21T02:17:00;11.40;;;6.00;;
68763;SDS011;55754;52.038;5.566;2022-08-21T02:19:27;13.33;;;6.10;;
68763;SDS011;55754;52.038;5.566;2022-08-21T02:21:52;11.63;;;6.70;;
68763;SDS011;55754;52.038;5.566;2022-08-21T02:24:18;12.10;;;6.80;;
68763;SDS011;55754;52.038;5.566;2022-08-21T02:26:43;11.60;;;6.55;;
68763;SDS011;55754;52.038;5.566;2022-08-21T02:29:09;13.97;;;6.83;;
68763;SDS011;55754;52.038;5.566;2022-08-21T02:31:35;12.40;;;6.37;;
68763;SDS011;55754;52.038;5.566;2022-08-21T02:34:00;11.98;;;6.25;;
68763;SDS011;55754;52.038;5.566;2022-08-21T02:36:26;11.80;;;6.27;;
68763;SDS011;55754;52.038;5.566;2022-08-21T02:38:52;11.23;;;6.13;;
68763;SDS011;55754;52.038;5.566;2022-08-21T02:41:19;12.27;;;6.55;;
68763;SDS011;55754;52.038;5.566;2022-08-21T02:43:46;11.37;;;6.17;;
68763;SDS011;55754;52.038;5.566;2022-08-21T02:46:13;11.02;;;6.35;;
68763;SDS011;55754;52.038;5.566;2022-08-21T02:48:40;13.10;;;6.00;;
68763;SDS011;55754;52.038;5.566;2022-08-21T02:51:11;12.67;;;6.07;;
68763;SDS011;55754;52.038;5.566;2022-08-21T02:53:39;13.35;;;5.78;;
68763;SDS011;55754;52.038;5.566;2022-08-21T02:56:06;11.40;;;5.97;;
68763;SDS011;55754;52.038;5.566;2022-08-21T02:58:37;9.93;;;6.00;;
68763;SDS011;55754;52.038;5.566;2022-08-21T03:01:05;10.10;;;6.00;;
68763;SDS011;55754;52.038;5.566;2022-08-21T03:03:34;10.80;;;5.80;;
68763;SDS011;55754;52.038;5.566;2022-08-21T03:06:01;12.43;;;5.97;;
68763;SDS011;55754;52.038;5.566;2022-08-21T03:08:28;11.73;;;5.90;;
68763;SDS011;55754;52.038;5.566;2022-08-21T03:10:54;10.90;;;5.93;;
68763;SDS011;55754;52.038;5.566;2022-08-21T03:13:20;11.75;;;6.15;;
68763;SDS011;55754;52.038;5.566;2022-08-21T03:15:46;9.07;;;5.77;;
68763;SDS011;55754;52.038;5.566;2022-08-21T03:18:13;11.27;;;5.95;;
68763;SDS011;55754;52.038;5.566;2022-08-21T03:20:40;9.45;;;5.88;;
68763;SDS011;55754;52.038;5.566;2022-08-21T03:23:07;9.13;;;5.60;;
68763;SDS011;55754;52.038;5.566;2022-08-21T03:25:34;12.35;;;5.80;;
68763;SDS011;55754;52.038;5.566;2022-08-21T03:28:00;9.63;;;5.80;;
68763;SDS011;55754;52.038;5.566;2022-08-21T03:30:27;10.77;;;5.60;;
68763;SDS011;55754;52.038;5.566;2022-08-21T03:32:53;11.25;;;5.60;;
68763;SDS011;55754;52.038;5.566;2022-08-21T03:35:19;10.50;;;5.40;;
68763;SDS011;55754;52.038;5.566;2022-08-21T03:37:45;10.50;;;5.57;;
68763;SDS011;55754;52.038;5.566;2022-08-21T03:40:13;11.75;;;5.90;;
68763;SDS011;55754;52.038;5.566;2022-08-21T03:42:40;12.10;;;5.70;;
68763;SDS011;55754;52.038;5.566;2022-08-21T03:45:06;10.57;;;5.60;;
68763;SDS011;55754;52.038;5.566;2022-08-21T03:47:32;9.02;;;5.25;;
68763;SDS011;55754;52.038;5.566;2022-08-21T03:49:58;9.40;;;5.70;;
68763;SDS011;55754;52.038;5.566;2022-08-21T03:52:24;10.93;;;5.55;;
68763;SDS011;55754;52.038;5.566;2022-08-21T03:54:50;12.00;;;5.78;;
68763;SDS011;55754;52.038;5.566;2022-08-21T03:57:16;10.70;;;5.37;;
68763;SDS011;55754;52.038;5.566;2022-08-21T03:59:42;8.57;;;5.00;;
68763;SDS011;55754;52.038;5.566;2022-08-21T04:02:08;10.40;;;5.60;;
68763;SDS011;55754;52.038;5.566;2022-08-21T04:04:34;11.02;;;5.75;;
68763;SDS011;55754;52.038;5.566;2022-08-21T04:07:00;11.17;;;5.80;;
68763;SDS011;55754;52.038;5.566;2022-08-21T04:09:26;10.80;;;5.57;;
68763;SDS011;55754;52.038;5.566;2022-08-21T04:11:52;8.95;;;5.60;;
68763;SDS011;55754;52.038;5.566;2022-08-21T04:14:17;10.10;;;5.70;;
68763;SDS011;55754;52.038;5.566;2022-08-21T04:16:43;12.43;;;5.68;;
68763;SDS011;55754;52.038;5.566;2022-08-21T04:19:10;10.95;;;5.68;;
68763;SDS011;55754;52.038;5.566;2022-08-21T04:21:41;13.27;;;6.20;;
68763;SDS011;55754;52.038;5.566;2022-08-21T04:24:08;11.38;;;5.72;;
68763;SDS011;55754;52.038;5.566;2022-08-21T04:26:34;10.60;;;5.90;;
68763;SDS011;55754;52.038;5.566;2022-08-21T04:29:01;11.67;;;5.83;;
68763;SDS011;55754;52.038;5.566;2022-08-21T04:31:27;12.55;;;6.15;;
68763;SDS011;55754;52.038;5.566;2022-08-21T04:33:53;13.18;;;6.00;;
68763;SDS011;55754;52.038;5.566;2022-08-21T04:36:20;13.57;;;5.73;;
68763;SDS011;55754;52.038;5.566;2022-08-21T04:38:46;13.18;;;6.05;;
68763;SDS011;55754;52.038;5.566;2022-08-21T04:41:11;10.00;;;5.90;;
68763;SDS011;55754;52.038;5.566;2022-08-21T04:43:38;11.50;;;6.03;;
68763;SDS011;55754;52.038;5.566;2022-08-21T04:46:04;9.93;;;5.88;;
68763;SDS011;55754;52.038;5.566;2022-08-21T04:48:30;16.48;;;6.20;;
68763;SDS011;55754;52.038;5.566;2022-08-21T04:51:02;13.27;;;6.30;;
68763;SDS011;55754;52.038;5.566;2022-08-21T04:53:56;12.75;;;6.20;;
68763;SDS011;55754;52.038;5.566;2022-08-21T04:56:37;11.82;;;6.10;;
68763;SDS011;55754;52.038;5.566;2022-08-21T04:59:15;11.70;;;6.18;;
68763;SDS011;55754;52.038;5.566;2022-08-21T05:01:43;15.03;;;6.17;;
68763;SDS011;55754;52.038;5.566;2022-08-21T05:04:11;11.65;;;6.40;;
68763;SDS011;55754;52.038;5.566;2022-08-21T05:06:40;16.27;;;5.97;;
68763;SDS011;55754;52.038;5.566;2022-08-21T05:09:07;10.87;;;6.10;;
68763;SDS011;55754;52.038;5.566;2022-08-21T05:11:35;9.82;;;6.20;;
68763;SDS011;55754;52.038;5.566;2022-08-21T05:14:02;12.88;;;6.47;;
68763;SDS011;55754;52.038;5.566;2022-08-21T05:16:28;14.13;;;6.70;;
68763;SDS011;55754;52.038;5.566;2022-08-21T05:18:53;13.43;;;6.28;;
68763;SDS011;55754;52.038;5.566;2022-08-21T05:21:19;13.80;;;6.57;;
68763;SDS011;55754;52.038;5.566;2022-08-21T05:23:45;15.10;;;6.57;;
68763;SDS011;55754;52.038;5.566;2022-08-21T05:26:11;11.10;;;6.20;;
68763;SDS011;55754;52.038;5.566;2022-08-21T05:28:37;13.33;;;6.30;;
68763;SDS011;55754;52.038;5.566;2022-08-21T05:31:03;13.70;;;6.78;;
68763;SDS011;55754;52.038;5.566;2022-08-21T05:33:29;14.43;;;6.40;;
68763;SDS011;55754;52.038;5.566;2022-08-21T05:35:55;12.05;;;6.57;;
68763;SDS011;55754;52.038;5.566;2022-08-21T05:38:21;11.95;;;6.43;;
68763;SDS011;55754;52.038;5.566;2022-08-21T05:40:48;11.57;;;6.60;;
68763;SDS011;55754;52.038;5.566;2022-08-21T05:43:14;10.70;;;6.47;;
68763;SDS011;55754;52.038;5.566;2022-08-21T05:45:40;12.25;;;6.45;;
68763;SDS011;55754;52.038;5.566;2022-08-21T05:48:06;15.60;;;6.67;;
68763;SDS011;55754;52.038;5.566;2022-08-21T05:50:35;11.93;;;6.43;;
68763;SDS011;55754;52.038;5.566;2022-08-21T05:53:02;12.68;;;6.65;;
68763;SDS011;55754;52.038;5.566;2022-08-21T05:55:29;15.07;;;6.50;;
68763;SDS011;55754;52.038;5.566;2022-08-21T05:57:54;13.23;;;6.07;;
68763;SDS011;55754;52.038;5.566;2022-08-21T06:00:20;13.57;;;6.30;;
68763;SDS011;55754;52.038;5.566;2022-08-21T06:02:48;13.38;;;5.80;;
68763;SDS011;55754;52.038;5.566;2022-08-21T06:05:14;17.63;;;5.57;;
68763;SDS011;55754;52.038;5.566;2022-08-21T06:07:40;15.47;;;5.60;;
68763;SDS011;55754;52.038;5.566;2022-08-21T06:10:06;12.40;;;5.40;;
68763;SDS011;55754;52.038;5.566;2022-08-21T06:12:32;10.85;;;4.78;;
68763;SDS011;55754;52.038;5.566;2022-08-21T06:14:58;12.57;;;4.73;;
68763;SDS011;55754;52.038;5.566;2022-08-21T06:17:24;10.33;;;4.67;;
68763;SDS011;55754;52.038;5.566;2022-08-21T06:19:53;13.53;;;4.87;;
68763;SDS011;55754;52.038;5.566;2022-08-21T06:22:19;16.27;;;4.75;;
68763;SDS011;55754;52.038;5.566;2022-08-21T06:24:46;15.50;;;4.10;;
68763;SDS011;55754;52.038;5.566;2022-08-21T06:27:11;13.00;;;4.47;;
68763;SDS011;55754;52.038;5.566;2022-08-21T06:29:37;11.02;;;4.13;;
68763;SDS011;55754;52.038;5.566;2022-08-21T06:32:03;11.47;;;4.27;;
68763;SDS011;55754;52.038;5.566;2022-08-21T06:34:29;11.95;;;4.40;;
68763;SDS011;55754;52.038;5.566;2022-08-21T06:36:55;13.88;;;4.38;;
68763;SDS011;55754;52.038;5.566;2022-08-21T06:39:21;14.47;;;4.30;;
68763;SDS011;55754;52.038;5.566;2022-08-21T06:41:46;15.27;;;4.37;;
68763;SDS011;55754;52.038;5.566;2022-08-21T06:44:12;13.23;;;4.13;;
68763;SDS011;55754;52.038;5.566;2022-08-21T06:46:41;11.38;;;3.97;;
68763;SDS011;55754;52.038;5.566;2022-08-21T06:49:06;11.73;;;4.50;;
68763;SDS011;55754;52.038;5.566;2022-08-21T06:51:32;15.05;;;4.35;;
68763;SDS011;55754;52.038;5.566;2022-08-21T06:53:57;16.13;;;4.20;;
68763;SDS011;55754;52.038;5.566;2022-08-21T06:56:23;14.80;;;4.20;;
68763;SDS011;55754;52.038;5.566;2022-08-21T06:58:49;15.37;;;4.30;;
68763;SDS011;55754;52.038;5.566;2022-08-21T07:01:15;14.77;;;4.30;;
68763;SDS011;55754;52.038;5.566;2022-08-21T07:03:41;14.00;;;4.23;;
68763;SDS011;55754;52.038;5.566;2022-08-21T07:06:09;14.30;;;4.88;;
68763;SDS011;55754;52.038;5.566;2022-08-21T07:08:36;12.37;;;4.43;;
68763;SDS011;55754;52.038;5.566;2022-08-21T07:11:03;15.60;;;4.75;;
68763;SDS011;55754;52.038;5.566;2022-08-21T07:13:34;12.95;;;4.32;;
68763;SDS011;55754;52.038;5.566;2022-08-21T07:16:00;16.97;;;5.00;;
68763;SDS011;55754;52.038;5.566;2022-08-21T07:18:26;13.95;;;4.07;;
68763;SDS011;55754;52.038;5.566;2022-08-21T07:20:52;15.83;;;4.50;;
68763;SDS011;55754;52.038;5.566;2022-08-21T07:23:28;14.00;;;4.38;;
68763;SDS011;55754;52.038;5.566;2022-08-21T07:25:56;13.13;;;4.00;;
68763;SDS011;55754;52.038;5.566;2022-08-21T07:28:24;13.98;;;4.15;;
68763;SDS011;55754;52.038;5.566;2022-08-21T07:30:50;14.00;;;4.20;;
68763;SDS011;55754;52.038;5.566;2022-08-21T07:33:18;14.18;;;4.38;;
68763;SDS011;55754;52.038;5.566;2022-08-21T07:35:43;15.43;;;4.23;;
68763;SDS011;55754;52.038;5.566;2022-08-21T07:38:09;15.10;;;4.40;;
68763;SDS011;55754;52.038;5.566;2022-08-21T07:40:35;12.68;;;4.10;;
68763;SDS011;55754;52.038;5.566;2022-08-21T07:43:00;12.37;;;4.20;;
68763;SDS011;55754;52.038;5.566;2022-08-21T07:45:26;10.97;;;3.70;;
68763;SDS011;55754;52.038;5.566;2022-08-21T07:47:52;13.73;;;4.00;;
68763;SDS011;55754;52.038;5.566;2022-08-21T07:50:18;14.23;;;3.53;;
68763;SDS011;55754;52.038;5.566;2022-08-21T07:52:44;14.45;;;3.90;;
68763;SDS011;55754;52.038;5.566;2022-08-21T07:55:11;11.05;;;3.78;;
68763;SDS011;55754;52.038;5.566;2022-08-21T07:57:38;13.30;;;4.00;;
68763;SDS011;55754;52.038;5.566;2022-08-21T08:00:05;13.57;;;4.07;;
68763;SDS011;55754;52.038;5.566;2022-08-21T08:02:33;12.07;;;3.83;;
68763;SDS011;55754;52.038;5.566;2022-08-21T08:05:00;15.80;;;4.20;;
68763;SDS011;55754;52.038;5.566;2022-08-21T08:07:26;13.52;;;3.92;;
68763;SDS011;55754;52.038;5.566;2022-08-21T08:09:52;16.42;;;4.00;;
68763;SDS011;55754;52.038;5.566;2022-08-21T08:12:18;12.77;;;4.00;;
68763;SDS011;55754;52.038;5.566;2022-08-21T08:14:45;13.10;;;4.00;;
68763;SDS011;55754;52.038;5.566;2022-08-21T08:17:11;16.05;;;3.92;;
68763;SDS011;55754;52.038;5.566;2022-08-21T08:19:38;14.17;;;3.83;;
68763;SDS011;55754;52.038;5.566;2022-08-21T08:22:14;13.15;;;4.05;;
68763;SDS011;55754;52.038;5.566;2022-08-21T08:24:48;12.52;;;3.60;;
68763;SDS011;55754;52.038;5.566;2022-08-21T08:27:15;11.70;;;3.60;;
68763;SDS011;55754;52.038;5.566;2022-08-21T08:29:41;14.05;;;3.85;;
68763;SDS011;55754;52.038;5.566;2022-08-21T08:32:07;13.70;;;3.30;;
68763;SDS011;55754;52.038;5.566;2022-08-21T08:34:33;14.43;;;3.23;;
68763;SDS011;55754;52.038;5.566;2022-08-21T08:37:00;15.07;;;3.53;;
68763;SDS011;55754;52.038;5.566;2022-08-21T08:39:26;14.07;;;3.78;;
68763;SDS011;55754;52.038;5.566;2022-08-21T08:42:35;10.07;;;3.40;;
68763;SDS011;55754;52.038;5.566;2022-08-21T08:44:57;14.52;;;3.53;;
68763;SDS011;55754;52.038;5.566;2022-08-21T08:47:43;12.30;;;3.45;;
68763;SDS011;55754;52.038;5.566;2022-08-21T08:50:19;13.80;;;2.87;;
68763;SDS011;55754;52.038;5.566;2022-08-21T08:52:54;12.13;;;3.03;;
68763;SDS011;55754;52.038;5.566;2022-08-21T08:55:32;11.80;;;2.50;;
68763;SDS011;55754;52.038;5.566;2022-08-21T08:58:01;17.33;;;2.80;;
68763;SDS011;55754;52.038;5.566;2022-08-21T09:00:28;12.73;;;2.60;;
68763;SDS011;55754;52.038;5.566;2022-08-21T09:02:55;11.57;;;2.50;;
68763;SDS011;55754;52.038;5.566;2022-08-21T09:05:27;11.48;;;2.58;;
68763;SDS011;55754;52.038;5.566;2022-08-21T09:08:02;11.43;;;2.70;;
68763;SDS011;55754;52.038;5.566;2022-08-21T09:10:48;12.43;;;2.60;;
68763;SDS011;55754;52.038;5.566;2022-08-21T09:15:53;13.07;;;2.90;;
68763;SDS011;55754;52.038;5.566;2022-08-21T09:21:11;12.70;;;2.70;;
68763;SDS011;55754;52.038;5.566;2022-08-21T09:24:02;12.25;;;2.60;;
68763;SDS011;55754;52.038;5.566;2022-08-21T09:29:17;12.13;;;2.55;;
68763;SDS011;55754;52.038;5.566;2022-08-21T09:31:47;9.10;;;2.05;;
68763;SDS011;55754;52.038;5.566;2022-08-21T09:34:12;12.73;;;2.63;;
68763;SDS011;55754;52.038;5.566;2022-08-21T09:36:58;12.90;;;2.30;;
68763;SDS011;55754;52.038;5.566;2022-08-21T09:39:29;11.15;;;2.42;;
68763;SDS011;55754;52.038;5.566;2022-08-21T09:42:04;8.57;;;1.90;;
68763;SDS011;55754;52.038;5.566;2022-08-21T09:44:33;9.02;;;1.90;;
68763;SDS011;55754;52.038;5.566;2022-08-21T09:47:04;9.13;;;2.05;;
68763;SDS011;55754;52.038;5.566;2022-08-21T09:49:38;8.03;;;2.10;;
68763;SDS011;55754;52.038;5.566;2022-08-21T09:52:10;7.93;;;2.20;;
68763;SDS011;55754;52.038;5.566;2022-08-21T09:54:46;10.60;;;2.13;;
68763;SDS011;55754;52.038;5.566;2022-08-21T09:57:19;12.57;;;2.33;;
68763;SDS011;55754;52.038;5.566;2022-08-21T10:00:18;11.93;;;2.77;;
68763;SDS011;55754;52.038;5.566;2022-08-21T10:02:46;9.48;;;2.15;;
68763;SDS011;55754;52.038;5.566;2022-08-21T10:05:25;11.13;;;2.13;;
68763;SDS011;55754;52.038;5.566;2022-08-21T10:07:53;9.55;;;2.00;;
68763;SDS011;55754;52.038;5.566;2022-08-21T10:10:23;8.07;;;2.10;;
68763;SDS011;55754;52.038;5.566;2022-08-21T10:18:42;13.13;;;2.13;;
68763;SDS011;55754;52.038;5.566;2022-08-21T10:21:34;12.33;;;2.40;;
68763;SDS011;55754;52.038;5.566;2022-08-21T10:24:13;10.50;;;2.15;;
68763;SDS011;55754;52.038;5.566;2022-08-21T10:35:06;10.45;;;2.08;;
68763;SDS011;55754;52.038;5.566;2022-08-21T10:48:02;9.30;;;2.20;;
68763;SDS011;55754;52.038;5.566;2022-08-21T10:50:41;12.30;;;2.50;;
68763;SDS011;55754;52.038;5.566;2022-08-21T11:01:29;8.77;;;2.20;;
68763;SDS011;55754;52.038;5.566;2022-08-21T11:06:41;8.35;;;2.00;;
68763;SDS011;55754;52.038;5.566;2022-08-21T11:09:13;10.85;;;2.25;;
68763;SDS011;55754;52.038;5.566;2022-08-21T11:14:49;11.77;;;2.40;;
68763;SDS011;55754;52.038;5.566;2022-08-21T11:17:23;8.65;;;2.13;;
68763;SDS011;55754;52.038;5.566;2022-08-21T11:20:24;10.25;;;1.95;;
68763;SDS011;55754;52.038;5.566;2022-08-21T11:23:38;9.50;;;1.90;;
68763;SDS011;55754;52.038;5.566;2022-08-21T11:25:58;7.78;;;2.33;;
68763;SDS011;55754;52.038;5.566;2022-08-21T11:28:48;8.70;;;2.03;;
68763;SDS011;55754;52.038;5.566;2022-08-21T11:36:50;7.63;;;1.83;;
68763;SDS011;55754;52.038;5.566;2022-08-21T11:39:40;8.73;;;1.80;;
68763;SDS011;55754;52.038;5.566;2022-08-21T11:45:49;7.45;;;2.10;;
68763;SDS011;55754;52.038;5.566;2022-08-21T11:50:54;5.80;;;1.60;;
68763;SDS011;55754;52.038;5.566;2022-08-21T11:53:26;7.70;;;1.83;;
68763;SDS011;55754;52.038;5.566;2022-08-21T11:58:39;7.57;;;2.10;;
68763;SDS011;55754;52.038;5.566;2022-08-21T12:01:16;8.18;;;1.80;;
68763;SDS011;55754;52.038;5.566;2022-08-21T12:03:54;8.38;;;1.60;;
68763;SDS011;55754;52.038;5.566;2022-08-21T12:06:31;7.50;;;1.60;;
68763;SDS011;55754;52.038;5.566;2022-08-21T12:09:02;9.67;;;1.60;;
68763;SDS011;55754;52.038;5.566;2022-08-21T12:11:30;10.52;;;1.58;;
68763;SDS011;55754;52.038;5.566;2022-08-21T12:16:39;9.33;;;1.70;;
68763;SDS011;55754;52.038;5.566;2022-08-21T12:19:09;8.52;;;1.70;;
68763;SDS011;55754;52.038;5.566;2022-08-21T12:21:50;7.70;;;1.98;;
68763;SDS011;55754;52.038;5.566;2022-08-21T12:24:30;7.27;;;2.10;;
68763;SDS011;55754;52.038;5.566;2022-08-21T12:29:49;10.07;;;2.15;;
68763;SDS011;55754;52.038;5.566;2022-08-21T12:34:47;9.27;;;2.23;;
68763;SDS011;55754;52.038;5.566;2022-08-21T12:40:09;7.80;;;2.20;;
68763;SDS011;55754;52.038;5.566;2022-08-21T12:42:47;9.15;;;2.20;;
68763;SDS011;55754;52.038;5.566;2022-08-21T12:55:52;8.60;;;2.17;;
68763;SDS011;55754;52.038;5.566;2022-08-21T12:58:22;9.67;;;2.27;;
68763;SDS011;55754;52.038;5.566;2022-08-21T13:00:50;7.72;;;1.90;;
68763;SDS011;55754;52.038;5.566;2022-08-21T13:03:22;10.30;;;2.20;;
68763;SDS011;55754;52.038;5.566;2022-08-21T13:05:49;11.48;;;2.15;;
68763;SDS011;55754;52.038;5.566;2022-08-21T13:08:18;8.15;;;1.98;;
68763;SDS011;55754;52.038;5.566;2022-08-21T13:10:47;6.28;;;1.80;;
68763;SDS011;55754;52.038;5.566;2022-08-21T13:13:18;8.63;;;2.13;;
68763;SDS011;55754;52.038;5.566;2022-08-21T13:15:46;6.22;;;1.90;;
68763;SDS011;55754;52.038;5.566;2022-08-21T13:18:22;8.30;;;1.90;;
68763;SDS011;55754;52.038;5.566;2022-08-21T13:20:49;6.97;;;2.00;;
68763;SDS011;55754;52.038;5.566;2022-08-21T13:23:21;5.30;;;1.50;;
68763;SDS011;55754;52.038;5.566;2022-08-21T13:25:49;7.63;;;1.73;;
68763;SDS011;55754;52.038;5.566;2022-08-21T13:28:15;6.13;;;1.60;;
68763;SDS011;55754;52.038;5.566;2022-08-21T13:30:45;6.18;;;1.50;;
68763;SDS011;55754;52.038;5.566;2022-08-21T13:33:13;7.30;;;1.60;;
68763;SDS011;55754;52.038;5.566;2022-08-21T13:35:52;7.57;;;1.52;;
68763;SDS011;55754;52.038;5.566;2022-08-21T13:38:30;7.22;;;1.60;;
68763;SDS011;55754;52.038;5.566;2022-08-21T13:41:05;8.80;;;1.70;;
68763;SDS011;55754;52.038;5.566;2022-08-21T13:43:43;7.40;;;1.70;;
68763;SDS011;55754;52.038;5.566;2022-08-21T13:46:11;10.75;;;1.48;;
68763;SDS011;55754;52.038;5.566;2022-08-21T13:48:39;6.82;;;1.75;;
68763;SDS011;55754;52.038;5.566;2022-08-21T13:51:07;6.93;;;1.40;;
68763;SDS011;55754;52.038;5.566;2022-08-21T13:53:55;5.82;;;1.40;;
68763;SDS011;55754;52.038;5.566;2022-08-21T13:56:27;7.55;;;1.60;;
68763;SDS011;55754;52.038;5.566;2022-08-21T13:58:56;7.60;;;1.73;;
68763;SDS011;55754;52.038;5.566;2022-08-21T14:01:26;9.93;;;1.77;;
68763;SDS011;55754;52.038;5.566;2022-08-21T14:03:56;6.75;;;1.45;;
68763;SDS011;55754;52.038;5.566;2022-08-21T14:06:27;6.65;;;1.58;;
68763;SDS011;55754;52.038;5.566;2022-08-21T14:08:58;8.63;;;1.77;;
68763;SDS011;55754;52.038;5.566;2022-08-21T14:11:33;5.75;;;1.38;;
68763;SDS011;55754;52.038;5.566;2022-08-21T14:14:02;5.80;;;1.42;;
68763;SDS011;55754;52.038;5.566;2022-08-21T14:16:43;6.83;;;1.53;;
68763;SDS011;55754;52.038;5.566;2022-08-21T14:19:22;6.22;;;1.60;;
68763;SDS011;55754;52.038;5.566;2022-08-21T14:21:52;7.75;;;1.60;;
68763;SDS011;55754;52.038;5.566;2022-08-21T14:29:35;7.63;;;1.75;;
68763;SDS011;55754;52.038;5.566;2022-08-21T14:32:20;7.40;;;1.60;;
68763;SDS011;55754;52.038;5.566;2022-08-21T14:34:47;7.03;;;1.57;;
68763;SDS011;55754;52.038;5.566;2022-08-21T14:37:13;6.47;;;1.70;;
68763;SDS011;55754;52.038;5.566;2022-08-21T14:39:38;7.40;;;1.50;;
68763;SDS011;55754;52.038;5.566;2022-08-21T14:42:04;7.28;;;1.67;;
68763;SDS011;55754;52.038;5.566;2022-08-21T14:44:30;7.30;;;1.70;;
68763;SDS011;55754;52.038;5.566;2022-08-21T14:46:58;7.95;;;1.90;;
68763;SDS011;55754;52.038;5.566;2022-08-21T14:49:25;8.07;;;1.70;;
68763;SDS011;55754;52.038;5.566;2022-08-21T14:51:52;7.97;;;1.60;;
68763;SDS011;55754;52.038;5.566;2022-08-21T14:54:22;7.32;;;1.63;;
68763;SDS011;55754;52.038;5.566;2022-08-21T14:56:49;8.20;;;1.80;;
68763;SDS011;55754;52.038;5.566;2022-08-21T14:59:15;8.07;;;1.80;;
68763;SDS011;55754;52.038;5.566;2022-08-21T15:01:41;10.65;;;2.08;;
68763;SDS011;55754;52.038;5.566;2022-08-21T15:04:07;7.95;;;1.90;;
68763;SDS011;55754;52.038;5.566;2022-08-21T15:06:33;6.00;;;1.60;;
68763;SDS011;55754;52.038;5.566;2022-08-21T15:08:58;7.03;;;1.70;;
68763;SDS011;55754;52.038;5.566;2022-08-21T15:11:24;7.37;;;1.70;;
68763;SDS011;55754;52.038;5.566;2022-08-21T15:13:53;9.75;;;1.80;;
68763;SDS011;55754;52.038;5.566;2022-08-21T15:16:23;7.60;;;1.53;;
68763;SDS011;55754;52.038;5.566;2022-08-21T15:18:48;6.43;;;1.65;;
68763;SDS011;55754;52.038;5.566;2022-08-21T15:21:14;6.45;;;1.80;;
68763;SDS011;55754;52.038;5.566;2022-08-21T15:23:40;8.97;;;2.07;;
68763;SDS011;55754;52.038;5.566;2022-08-21T15:26:06;6.65;;;1.70;;
68763;SDS011;55754;52.038;5.566;2022-08-21T15:28:33;7.53;;;2.00;;
68763;SDS011;55754;52.038;5.566;2022-08-21T15:31:00;6.80;;;1.75;;
68763;SDS011;55754;52.038;5.566;2022-08-21T15:33:26;8.95;;;2.00;;
68763;SDS011;55754;52.038;5.566;2022-08-21T15:35:52;6.57;;;1.80;;
68763;SDS011;55754;52.038;5.566;2022-08-21T15:38:17;9.50;;;2.00;;
68763;SDS011;55754;52.038;5.566;2022-08-21T15:40:43;7.70;;;1.80;;
68763;SDS011;55754;52.038;5.566;2022-08-21T15:43:11;11.27;;;2.05;;
68763;SDS011;55754;52.038;5.566;2022-08-21T15:45:48;7.30;;;2.17;;
68763;SDS011;55754;52.038;5.566;2022-08-21T15:48:14;7.30;;;2.10;;
68763;SDS011;55754;52.038;5.566;2022-08-21T15:50:40;6.53;;;2.10;;
68763;SDS011;55754;52.038;5.566;2022-08-21T15:53:05;9.00;;;2.00;;
68763;SDS011;55754;52.038;5.566;2022-08-21T15:55:32;8.70;;;2.25;;
68763;SDS011;55754;52.038;5.566;2022-08-21T15:57:58;7.65;;;2.05;;
68763;SDS011;55754;52.038;5.566;2022-08-21T16:00:25;8.13;;;1.87;;
68763;SDS011;55754;52.038;5.566;2022-08-21T16:02:53;7.57;;;2.00;;
68763;SDS011;55754;52.038;5.566;2022-08-21T16:05:21;9.38;;;2.15;;
68763;SDS011;55754;52.038;5.566;2022-08-21T16:07:47;6.83;;;1.90;;
68763;SDS011;55754;52.038;5.566;2022-08-21T16:10:15;9.55;;;1.90;;
68763;SDS011;55754;52.038;5.566;2022-08-21T16:12:44;10.02;;;1.92;;
68763;SDS011;55754;52.038;5.566;2022-08-21T16:15:13;6.38;;;1.85;;
68763;SDS011;55754;52.038;5.566;2022-08-21T16:17:40;7.13;;;1.53;;